sensor_id;sensor_type;location;lat;lon;timestamp;temperature;humidity
20231;DHT22;10274;49.022;9.338;2022-11-14T00:00:31;2.70;99.90
20231;DHT22;10274;49.022;9.338;2022-11-14T00:02:59;3.00;99.90
20231;DHT22;10274;49.022;9.338;2022-11-14T00:05:26;3.00;99.90
20231;DHT22;10274;49.022;9.338;2022-11-14T00:07:53;3.00;99.90
20231;DHT22;10274;49.022;9.338;2022-11-14T00:10:20;3.00;99.90
20231;DHT22;10274;49.022;9.338;2022-11-14T00:12:48;2.90;99.90
20231;DHT22;10274;49.022;9.338;2022-11-14T00:15:15;3.10;99.90
20231;DHT22;10274;49.022;9.338;2022-11-14T00:17:42;3.20;99.90
20231;DHT22;10274;49.022;9.338;2022-11-14T00:20:11;3.10;99.90
20231;DHT22;10274;49.022;9.338;2022-11-14T00:22:38;3.20;99.90
20231;DHT22;10274;49.022;9.338;2022-11-14T00:25:05;3.30;99.90
20231;DHT22;10274;49.022;9.338;2022-11-14T00:27:32;3.50;99.90
20231;DHT22;10274;49.022;9.338;2022-11-14T00:30:00;3.60;99.90
20231;DHT22;10274;49.022;9.338;2022-11-14T00:32:27;3.70;99.90
20231;DHT22;10274;49.022;9.338;2022-11-14T00:34:53;3.80;99.90
20231;DHT22;10274;49.022;9.338;2022-11-14T00:37:20;3.80;99.90
20231;DHT22;10274;49.022;9.338;2022-11-14T00:39:47;3.90;99.90
20231;DHT22;10274;49.022;9.338;2022-11-14T00:42:13;3.90;99.90
20231;DHT22;10274;49.022;9.338;2022-11-14T00:44:40;4.00;99.90
20231;DHT22;10274;49.022;9.338;2022-11-14T00:47:08;4.10;99.90
20231;DHT22;10274;49.022;9.338;2022-11-14T00:49:35;4.10;99.90
20231;DHT22;10274;49.022;9.338;2022-11-14T00:52:02;4.20;99.90
20231;DHT22;10274;49.022;9.338;2022-11-14T00:54:28;4.30;99.90
20231;DHT22;10274;49.022;9.338;2022-11-14T00:56:55;4.20;99.90
20231;DHT22;10274;49.022;9.338;2022-11-14T00:59:22;4.30;99.90
20231;DHT22;10274;49.022;9.338;2022-11-14T01:01:48;4.20;99.90
20231;DHT22;10274;49.022;9.338;2022-11-14T01:04:17;4.30;99.90
20231;DHT22;10274;49.022;9.338;2022-11-14T01:06:44;4.30;99.90
20231;DHT22;10274;49.022;9.338;2022-11-14T01:09:11;4.30;99.90
20231;DHT22;10274;49.022;9.338;2022-11-14T01:11:37;4.40;99.90
20231;DHT22;10274;49.022;9.338;2022-11-14T01:14:05;4.30;99.90
20231;DHT22;10274;49.022;9.338;2022-11-14T01:16:32;4.30;99.90
20231;DHT22;10274;49.022;9.338;2022-11-14T01:19:00;4.30;99.90
20231;DHT22;10274;49.022;9.338;2022-11-14T01:21:28;4.30;99.90
20231;DHT22;10274;49.022;9.338;2022-11-14T01:23:55;4.50;99.90
20231;DHT22;10274;49.022;9.338;2022-11-14T01:26:22;4.40;99.90
20231;DHT22;10274;49.022;9.338;2022-11-14T01:28:49;4.50;99.90
20231;DHT22;10274;49.022;9.338;2022-11-14T01:31:17;4.60;99.90
20231;DHT22;10274;49.022;9.338;2022-11-14T01:33:47;4.70;99.90
20231;DHT22;10274;49.022;9.338;2022-11-14T01:36:14;4.60;99.90
20231;DHT22;10274;49.022;9.338;2022-11-14T01:38:42;4.70;99.90
20231;DHT22;10274;49.022;9.338;2022-11-14T01:41:12;4.60;99.90
20231;DHT22;10274;49.022;9.338;2022-11-14T01:43:40;4.60;99.90
20231;DHT22;10274;49.022;9.338;2022-11-14T01:46:10;4.70;99.90
20231;DHT22;10274;49.022;9.338;2022-11-14T01:48:41;4.80;99.90
20231;DHT22;10274;49.022;9.338;2022-11-14T01:51:17;4.80;99.90
20231;DHT22;10274;49.022;9.338;2022-11-14T01:53:48;4.70;99.90
20231;DHT22;10274;49.022;9.338;2022-11-14T01:56:18;4.80;99.90
20231;DHT22;10274;49.022;9.338;2022-11-14T01:58:50;4.80;99.90
20231;DHT22;10274;49.022;9.338;2022-11-14T02:01:17;4.80;99.90
20231;DHT22;10274;49.022;9.338;2022-11-14T02:03:46;4.80;99.90
20231;DHT22;10274;49.022;9.338;2022-11-14T02:06:17;4.90;99.90
20231;DHT22;10274;49.022;9.338;2022-11-14T02:08:45;4.80;99.90
20231;DHT22;10274;49.022;9.338;2022-11-14T02:11:13;4.90;99.90
20231;DHT22;10274;49.022;9.338;2022-11-14T02:13:40;5.00;99.90
20231;DHT22;10274;49.022;9.338;2022-11-14T02:16:07;5.00;99.90
20231;DHT22;10274;49.022;9.338;2022-11-14T02:18:33;4.90;99.90
20231;DHT22;10274;49.022;9.338;2022-11-14T02:21:01;5.00;99.90
20231;DHT22;10274;49.022;9.338;2022-11-14T02:23:30;4.80;99.90
20231;DHT22;10274;49.022;9.338;2022-11-14T02:25:57;4.70;99.90
20231;DHT22;10274;49.022;9.338;2022-11-14T02:28:25;4.80;99.90
20231;DHT22;10274;49.022;9.338;2022-11-14T02:30:52;4.80;99.90
20231;DHT22;10274;49.022;9.338;2022-11-14T02:33:18;4.80;99.90
20231;DHT22;10274;49.022;9.338;2022-11-14T02:35:45;4.90;99.90
20231;DHT22;10274;49.022;9.338;2022-11-14T02:38:13;4.90;99.90
20231;DHT22;10274;49.022;9.338;2022-11-14T02:40:40;4.90;99.90
20231;DHT22;10274;49.022;9.338;2022-11-14T02:43:07;4.90;99.90
20231;DHT22;10274;49.022;9.338;2022-11-14T02:45:33;5.00;99.90
20231;DHT22;10274;49.022;9.338;2022-11-14T02:48:00;5.10;99.90
20231;DHT22;10274;49.022;9.338;2022-11-14T02:50:27;5.10;99.90
20231;DHT22;10274;49.022;9.338;2022-11-14T02:52:54;5.10;99.90
20231;DHT22;10274;49.022;9.338;2022-11-14T02:55:22;5.10;99.90
20231;DHT22;10274;49.022;9.338;2022-11-14T02:57:49;5.20;99.90
20231;DHT22;10274;49.022;9.338;2022-11-14T03:00:16;5.20;99.90
20231;DHT22;10274;49.022;9.338;2022-11-14T03:02:43;5.20;99.90
20231;DHT22;10274;49.022;9.338;2022-11-14T03:05:10;5.30;99.90
20231;DHT22;10274;49.022;9.338;2022-11-14T03:07:37;5.40;99.90
20231;DHT22;10274;49.022;9.338;2022-11-14T03:10:04;5.30;99.90
20231;DHT22;10274;49.022;9.338;2022-11-14T03:12:32;5.40;99.90
20231;DHT22;10274;49.022;9.338;2022-11-14T03:14:59;5.40;99.90
20231;DHT22;10274;49.022;9.338;2022-11-14T03:17:30;5.40;99.90
20231;DHT22;10274;49.022;9.338;2022-11-14T03:19:57;5.40;99.90
20231;DHT22;10274;49.022;9.338;2022-11-14T03:22:23;5.40;99.90
20231;DHT22;10274;49.022;9.338;2022-11-14T03:24:50;5.40;99.90
20231;DHT22;10274;49.022;9.338;2022-11-14T03:27:17;5.40;99.90
20231;DHT22;10274;49.022;9.338;2022-11-14T03:29:45;5.30;99.90
20231;DHT22;10274;49.022;9.338;2022-11-14T03:32:12;5.20;99.90
20231;DHT22;10274;49.022;9.338;2022-11-14T03:34:38;5.00;99.90
20231;DHT22;10274;49.022;9.338;2022-11-14T03:37:05;4.90;99.90
20231;DHT22;10274;49.022;9.338;2022-11-14T03:39:32;4.90;99.90
20231;DHT22;10274;49.022;9.338;2022-11-14T03:41:58;4.90;99.90
20231;DHT22;10274;49.022;9.338;2022-11-14T03:44:25;4.90;99.90
20231;DHT22;10274;49.022;9.338;2022-11-14T03:46:53;4.80;99.90
20231;DHT22;10274;49.022;9.338;2022-11-14T03:49:20;4.60;99.90
20231;DHT22;10274;49.022;9.338;2022-11-14T03:51:47;4.60;99.90
20231;DHT22;10274;49.022;9.338;2022-11-14T03:54:14;4.60;99.90
20231;DHT22;10274;49.022;9.338;2022-11-14T03:56:40;4.50;99.90
20231;DHT22;10274;49.022;9.338;2022-11-14T03:59:07;4.20;99.90
20231;DHT22;10274;49.022;9.338;2022-11-14T04:01:34;4.00;99.90
20231;DHT22;10274;49.022;9.338;2022-11-14T04:04:02;3.90;99.90
20231;DHT22;10274;49.022;9.338;2022-11-14T04:06:28;3.90;99.90
20231;DHT22;10274;49.022;9.338;2022-11-14T04:08:55;3.90;99.90
20231;DHT22;10274;49.022;9.338;2022-11-14T04:11:22;3.90;99.90
20231;DHT22;10274;49.022;9.338;2022-11-14T04:13:49;3.90;99.90
20231;DHT22;10274;49.022;9.338;2022-11-14T04:16:15;4.00;99.90
20231;DHT22;10274;49.022;9.338;2022-11-14T04:18:42;4.10;99.90
20231;DHT22;10274;49.022;9.338;2022-11-14T04:21:10;4.20;99.90
20231;DHT22;10274;49.022;9.338;2022-11-14T04:23:37;4.20;99.90
20231;DHT22;10274;49.022;9.338;2022-11-14T04:26:04;4.40;99.90
20231;DHT22;10274;49.022;9.338;2022-11-14T04:28:30;4.60;99.90
20231;DHT22;10274;49.022;9.338;2022-11-14T04:30:57;4.70;99.90
20231;DHT22;10274;49.022;9.338;2022-11-14T04:33:24;4.70;99.90
20231;DHT22;10274;49.022;9.338;2022-11-14T04:35:51;4.60;99.90
20231;DHT22;10274;49.022;9.338;2022-11-14T04:38:19;4.60;99.90
20231;DHT22;10274;49.022;9.338;2022-11-14T04:40:49;4.60;99.90
20231;DHT22;10274;49.022;9.338;2022-11-14T04:43:18;4.50;99.90
20231;DHT22;10274;49.022;9.338;2022-11-14T04:45:45;4.50;99.90
20231;DHT22;10274;49.022;9.338;2022-11-14T04:48:12;4.70;99.90
20231;DHT22;10274;49.022;9.338;2022-11-14T04:50:39;4.80;99.90
20231;DHT22;10274;49.022;9.338;2022-11-14T04:53:06;4.90;99.90
20231;DHT22;10274;49.022;9.338;2022-11-14T04:55:34;5.00;99.90
20231;DHT22;10274;49.022;9.338;2022-11-14T04:58:00;4.90;99.90
20231;DHT22;10274;49.022;9.338;2022-11-14T05:00:27;4.80;99.90
20231;DHT22;10274;49.022;9.338;2022-11-14T05:02:54;4.70;99.90
20231;DHT22;10274;49.022;9.338;2022-11-14T05:05:21;4.60;99.90
20231;DHT22;10274;49.022;9.338;2022-11-14T05:07:47;4.60;99.90
20231;DHT22;10274;49.022;9.338;2022-11-14T05:10:14;4.40;99.90
20231;DHT22;10274;49.022;9.338;2022-11-14T05:12:42;4.40;99.90
20231;DHT22;10274;49.022;9.338;2022-11-14T05:15:09;4.20;99.90
20231;DHT22;10274;49.022;9.338;2022-11-14T05:17:36;4.20;99.90
20231;DHT22;10274;49.022;9.338;2022-11-14T05:20:03;4.00;99.90
20231;DHT22;10274;49.022;9.338;2022-11-14T05:22:30;4.00;99.90
20231;DHT22;10274;49.022;9.338;2022-11-14T05:24:57;4.10;99.90
20231;DHT22;10274;49.022;9.338;2022-11-14T05:27:23;3.70;99.90
20231;DHT22;10274;49.022;9.338;2022-11-14T05:29:51;3.80;99.90
20231;DHT22;10274;49.022;9.338;2022-11-14T05:32:19;3.70;99.90
20231;DHT22;10274;49.022;9.338;2022-11-14T05:34:46;3.70;99.90
20231;DHT22;10274;49.022;9.338;2022-11-14T05:37:13;3.70;99.90
20231;DHT22;10274;49.022;9.338;2022-11-14T05:39:40;3.80;99.90
20231;DHT22;10274;49.022;9.338;2022-11-14T05:42:06;3.50;99.90
20231;DHT22;10274;49.022;9.338;2022-11-14T05:44:33;3.30;99.90
20231;DHT22;10274;49.022;9.338;2022-11-14T05:47:01;3.20;99.90
20231;DHT22;10274;49.022;9.338;2022-11-14T05:49:28;3.20;99.90
20231;DHT22;10274;49.022;9.338;2022-11-14T05:51:55;3.40;99.90
20231;DHT22;10274;49.022;9.338;2022-11-14T05:54:21;3.30;99.90
20231;DHT22;10274;49.022;9.338;2022-11-14T05:56:48;3.30;99.90
20231;DHT22;10274;49.022;9.338;2022-11-14T05:59:15;3.20;99.90
20231;DHT22;10274;49.022;9.338;2022-11-14T06:01:41;3.10;99.90
20231;DHT22;10274;49.022;9.338;2022-11-14T06:04:10;3.10;99.90
20231;DHT22;10274;49.022;9.338;2022-11-14T06:06:38;3.00;99.90
20231;DHT22;10274;49.022;9.338;2022-11-14T06:09:05;2.80;99.90
20231;DHT22;10274;49.022;9.338;2022-11-14T06:11:32;2.70;99.90
20231;DHT22;10274;49.022;9.338;2022-11-14T06:13:59;2.70;99.90
20231;DHT22;10274;49.022;9.338;2022-11-14T06:16:26;2.70;99.90
20231;DHT22;10274;49.022;9.338;2022-11-14T06:18:53;2.60;99.90
20231;DHT22;10274;49.022;9.338;2022-11-14T06:21:22;2.30;99.90
20231;DHT22;10274;49.022;9.338;2022-11-14T06:23:49;2.40;99.90
20231;DHT22;10274;49.022;9.338;2022-11-14T06:26:20;2.40;99.90
20231;DHT22;10274;49.022;9.338;2022-11-14T06:28:47;2.50;99.90
20231;DHT22;10274;49.022;9.338;2022-11-14T06:31:15;2.50;99.90
20231;DHT22;10274;49.022;9.338;2022-11-14T06:33:41;2.30;99.90
20231;DHT22;10274;49.022;9.338;2022-11-14T06:36:09;2.30;99.90
20231;DHT22;10274;49.022;9.338;2022-11-14T06:38:38;2.30;99.90
20231;DHT22;10274;49.022;9.338;2022-11-14T06:41:07;2.40;99.90
20231;DHT22;10274;49.022;9.338;2022-11-14T06:43:34;2.60;99.90
20231;DHT22;10274;49.022;9.338;2022-11-14T06:46:01;2.50;99.90
20231;DHT22;10274;49.022;9.338;2022-11-14T06:48:29;2.50;99.90
20231;DHT22;10274;49.022;9.338;2022-11-14T06:50:57;2.60;99.90
20231;DHT22;10274;49.022;9.338;2022-11-14T06:53:26;2.60;99.90
20231;DHT22;10274;49.022;9.338;2022-11-14T06:55:55;2.80;99.90
20231;DHT22;10274;49.022;9.338;2022-11-14T06:58:25;2.80;99.90
20231;DHT22;10274;49.022;9.338;2022-11-14T07:00:52;2.90;99.90
20231;DHT22;10274;49.022;9.338;2022-11-14T07:03:18;3.00;99.90
20231;DHT22;10274;49.022;9.338;2022-11-14T07:05:45;3.30;99.90
20231;DHT22;10274;49.022;9.338;2022-11-14T07:08:12;3.30;99.90
20231;DHT22;10274;49.022;9.338;2022-11-14T07:10:38;3.20;99.90
20231;DHT22;10274;49.022;9.338;2022-11-14T07:13:06;3.40;99.90
20231;DHT22;10274;49.022;9.338;2022-11-14T07:15:35;3.40;99.90
20231;DHT22;10274;49.022;9.338;2022-11-14T07:18:02;3.60;99.90
20231;DHT22;10274;49.022;9.338;2022-11-14T07:20:29;4.70;99.90
20231;DHT22;10274;49.022;9.338;2022-11-14T07:22:56;4.70;95.30
20231;DHT22;10274;49.022;9.338;2022-11-14T07:25:22;4.70;36.10
20231;DHT22;10274;49.022;9.338;2022-11-14T07:27:49;4.80;26.30
20231;DHT22;10274;49.022;9.338;2022-11-14T07:30:17;4.60;32.80
20231;DHT22;10274;49.022;9.338;2022-11-14T07:32:44;4.30;55.20
20231;DHT22;10274;49.022;9.338;2022-11-14T07:35:11;4.30;81.50
20231;DHT22;10274;49.022;9.338;2022-11-14T07:37:37;3.70;87.40
20231;DHT22;10274;49.022;9.338;2022-11-14T07:40:05;3.50;99.90
20231;DHT22;10274;49.022;9.338;2022-11-14T07:42:32;3.40;99.90
20231;DHT22;10274;49.022;9.338;2022-11-14T07:44:58;3.40;99.90
20231;DHT22;10274;49.022;9.338;2022-11-14T07:47:27;3.40;99.90
20231;DHT22;10274;49.022;9.338;2022-11-14T07:49:54;3.40;99.90
20231;DHT22;10274;49.022;9.338;2022-11-14T07:52:20;3.30;99.90
20231;DHT22;10274;49.022;9.338;2022-11-14T07:54:47;3.40;99.90
20231;DHT22;10274;49.022;9.338;2022-11-14T07:57:14;4.10;99.90
20231;DHT22;10274;49.022;9.338;2022-11-14T07:59:40;4.60;90.30
20231;DHT22;10274;49.022;9.338;2022-11-14T08:02:14;4.60;55.50
20231;DHT22;10274;49.022;9.338;2022-11-14T08:04:42;4.10;57.10
20231;DHT22;10274;49.022;9.338;2022-11-14T08:07:09;3.90;92.00
20231;DHT22;10274;49.022;9.338;2022-11-14T08:09:35;3.50;99.90
20231;DHT22;10274;49.022;9.338;2022-11-14T08:12:02;3.50;99.90
20231;DHT22;10274;49.022;9.338;2022-11-14T08:14:29;3.40;99.90
20231;DHT22;10274;49.022;9.338;2022-11-14T08:16:56;3.40;99.90
20231;DHT22;10274;49.022;9.338;2022-11-14T08:19:22;3.50;99.90
20231;DHT22;10274;49.022;9.338;2022-11-14T08:21:50;3.50;99.90
20231;DHT22;10274;49.022;9.338;2022-11-14T08:24:17;3.50;99.90
20231;DHT22;10274;49.022;9.338;2022-11-14T08:26:44;3.70;99.90
20231;DHT22;10274;49.022;9.338;2022-11-14T08:29:10;3.80;99.90
20231;DHT22;10274;49.022;9.338;2022-11-14T08:31:38;4.00;99.90
20231;DHT22;10274;49.022;9.338;2022-11-14T08:34:05;4.00;99.90
20231;DHT22;10274;49.022;9.338;2022-11-14T08:36:31;4.10;99.90
20231;DHT22;10274;49.022;9.338;2022-11-14T08:38:59;4.20;99.90
20231;DHT22;10274;49.022;9.338;2022-11-14T08:41:26;4.50;99.90
20231;DHT22;10274;49.022;9.338;2022-11-14T08:43:53;4.70;99.90
20231;DHT22;10274;49.022;9.338;2022-11-14T08:46:19;4.90;99.90
20231;DHT22;10274;49.022;9.338;2022-11-14T08:48:46;5.10;99.90
20231;DHT22;10274;49.022;9.338;2022-11-14T08:51:13;5.20;99.90
20231;DHT22;10274;49.022;9.338;2022-11-14T08:53:40;5.30;99.90
20231;DHT22;10274;49.022;9.338;2022-11-14T08:56:09;5.50;99.90
20231;DHT22;10274;49.022;9.338;2022-11-14T08:58:36;6.00;99.90
20231;DHT22;10274;49.022;9.338;2022-11-14T09:01:04;6.50;99.90
20231;DHT22;10274;49.022;9.338;2022-11-14T09:03:31;6.70;99.90
20231;DHT22;10274;49.022;9.338;2022-11-14T09:05:58;7.20;65.40
20231;DHT22;10274;49.022;9.338;2022-11-14T09:08:26;7.50;6.90
20231;DHT22;10274;49.022;9.338;2022-11-14T09:10:53;7.90;1.00
20231;DHT22;10274;49.022;9.338;2022-11-14T09:13:21;8.20;1.00
20231;DHT22;10274;49.022;9.338;2022-11-14T09:15:48;8.30;1.00
20231;DHT22;10274;49.022;9.338;2022-11-14T09:18:15;8.40;1.00
20231;DHT22;10274;49.022;9.338;2022-11-14T09:20:41;8.40;1.00
20231;DHT22;10274;49.022;9.338;2022-11-14T09:23:08;8.50;1.00
20231;DHT22;10274;49.022;9.338;2022-11-14T09:25:36;8.50;1.00
20231;DHT22;10274;49.022;9.338;2022-11-14T09:28:04;8.50;1.00
20231;DHT22;10274;49.022;9.338;2022-11-14T09:30:33;8.50;1.00
20231;DHT22;10274;49.022;9.338;2022-11-14T09:33:00;8.40;1.00
20231;DHT22;10274;49.022;9.338;2022-11-14T09:35:27;8.40;1.00
20231;DHT22;10274;49.022;9.338;2022-11-14T09:38:00;8.40;1.00
20231;DHT22;10274;49.022;9.338;2022-11-14T09:40:28;8.40;7.80
20231;DHT22;10274;49.022;9.338;2022-11-14T09:43:17;8.40;1.00
20231;DHT22;10274;49.022;9.338;2022-11-14T09:45:50;8.40;17.20
20231;DHT22;10274;49.022;9.338;2022-11-14T09:48:19;8.30;40.00
20231;DHT22;10274;49.022;9.338;2022-11-14T09:50:50;8.20;53.50
20231;DHT22;10274;49.022;9.338;2022-11-14T09:53:22;8.20;91.60
20231;DHT22;10274;49.022;9.338;2022-11-14T09:55:54;8.10;94.00
20231;DHT22;10274;49.022;9.338;2022-11-14T09:58:21;8.20;99.90
20231;DHT22;10274;49.022;9.338;2022-11-14T10:00:53;8.30;99.90
20231;DHT22;10274;49.022;9.338;2022-11-14T10:03:28;8.40;99.90
20231;DHT22;10274;49.022;9.338;2022-11-14T10:06:19;8.50;99.90
20231;DHT22;10274;49.022;9.338;2022-11-14T10:08:58;8.50;99.90
20231;DHT22;10274;49.022;9.338;2022-11-14T10:11:32;8.60;99.90
20231;DHT22;10274;49.022;9.338;2022-11-14T10:14:16;8.60;99.90
20231;DHT22;10274;49.022;9.338;2022-11-14T10:16:54;9.00;99.90
20231;DHT22;10274;49.022;9.338;2022-11-14T10:19:28;9.30;99.90
20231;DHT22;10274;49.022;9.338;2022-11-14T10:22:14;9.50;98.00
20231;DHT22;10274;49.022;9.338;2022-11-14T10:24:55;9.50;99.90
20231;DHT22;10274;49.022;9.338;2022-11-14T10:27:31;9.70;94.30
20231;DHT22;10274;49.022;9.338;2022-11-14T10:30:08;9.70;92.50
20231;DHT22;10274;49.022;9.338;2022-11-14T10:32:51;9.70;93.90
20231;DHT22;10274;49.022;9.338;2022-11-14T10:35:23;9.70;90.40
20231;DHT22;10274;49.022;9.338;2022-11-14T10:37:58;9.80;93.60
20231;DHT22;10274;49.022;9.338;2022-11-14T10:40:32;9.80;91.70
20231;DHT22;10274;49.022;9.338;2022-11-14T10:43:09;9.90;83.80
20231;DHT22;10274;49.022;9.338;2022-11-14T10:45:42;9.80;67.10
20231;DHT22;10274;49.022;9.338;2022-11-14T10:48:13;9.80;79.70
20231;DHT22;10274;49.022;9.338;2022-11-14T10:50:48;9.80;53.90
20231;DHT22;10274;49.022;9.338;2022-11-14T10:53:22;9.90;48.20
20231;DHT22;10274;49.022;9.338;2022-11-14T10:55:52;10.00;48.80
20231;DHT22;10274;49.022;9.338;2022-11-14T10:58:19;10.10;16.50
20231;DHT22;10274;49.022;9.338;2022-11-14T11:00:46;10.20;18.50
20231;DHT22;10274;49.022;9.338;2022-11-14T11:03:15;10.20;17.20
20231;DHT22;10274;49.022;9.338;2022-11-14T11:05:47;10.20;10.00
20231;DHT22;10274;49.022;9.338;2022-11-14T11:08:18;10.40;1.00
20231;DHT22;10274;49.022;9.338;2022-11-14T11:11:03;10.50;1.00
20231;DHT22;10274;49.022;9.338;2022-11-14T11:13:51;10.60;1.00
20231;DHT22;10274;49.022;9.338;2022-11-14T11:16:21;10.60;1.00
20231;DHT22;10274;49.022;9.338;2022-11-14T11:18:50;10.60;1.00
20231;DHT22;10274;49.022;9.338;2022-11-14T11:21:18;10.50;1.00
20231;DHT22;10274;49.022;9.338;2022-11-14T11:23:50;10.40;1.00
20231;DHT22;10274;49.022;9.338;2022-11-14T11:26:22;10.40;1.00
20231;DHT22;10274;49.022;9.338;2022-11-14T11:29:14;10.60;1.00
20231;DHT22;10274;49.022;9.338;2022-11-14T11:31:49;10.70;1.00
20231;DHT22;10274;49.022;9.338;2022-11-14T11:34:22;10.80;1.00
20231;DHT22;10274;49.022;9.338;2022-11-14T11:36:54;10.90;1.00
20231;DHT22;10274;49.022;9.338;2022-11-14T11:39:27;11.00;1.00
20231;DHT22;10274;49.022;9.338;2022-11-14T11:41:56;11.10;1.00
20231;DHT22;10274;49.022;9.338;2022-11-14T11:44:29;11.20;1.00
20231;DHT22;10274;49.022;9.338;2022-11-14T11:47:02;11.40;1.00
20231;DHT22;10274;49.022;9.338;2022-11-14T11:49:39;11.50;1.00
20231;DHT22;10274;49.022;9.338;2022-11-14T11:52:12;11.70;1.00
20231;DHT22;10274;49.022;9.338;2022-11-14T11:54:50;11.80;1.00
20231;DHT22;10274;49.022;9.338;2022-11-14T11:57:22;13.30;1.00
20231;DHT22;10274;49.022;9.338;2022-11-14T11:59:53;13.40;19.80
20231;DHT22;10274;49.022;9.338;2022-11-14T12:02:24;12.60;99.90
20231;DHT22;10274;49.022;9.338;2022-11-14T12:04:55;12.20;1.00
20231;DHT22;10274;49.022;9.338;2022-11-14T12:07:31;12.00;1.00
20231;DHT22;10274;49.022;9.338;2022-11-14T12:10:01;12.00;1.00
20231;DHT22;10274;49.022;9.338;2022-11-14T12:12:45;11.90;1.00
20231;DHT22;10274;49.022;9.338;2022-11-14T12:15:21;11.80;1.00
20231;DHT22;10274;49.022;9.338;2022-11-14T12:21:09;11.80;1.00
20231;DHT22;10274;49.022;9.338;2022-11-14T12:23:55;11.70;6.80
20231;DHT22;10274;49.022;9.338;2022-11-14T12:26:42;11.70;1.00
20231;DHT22;10274;49.022;9.338;2022-11-14T12:29:25;11.80;1.00
20231;DHT22;10274;49.022;9.338;2022-11-14T12:31:57;11.80;1.00
20231;DHT22;10274;49.022;9.338;2022-11-14T12:34:27;11.80;14.30
20231;DHT22;10274;49.022;9.338;2022-11-14T12:36:57;11.80;1.00
20231;DHT22;10274;49.022;9.338;2022-11-14T12:39:27;11.90;1.00
20231;DHT22;10274;49.022;9.338;2022-11-14T12:42:01;11.90;1.10
20231;DHT22;10274;49.022;9.338;2022-11-14T12:44:32;12.00;99.90
20231;DHT22;10274;49.022;9.338;2022-11-14T12:47:15;12.10;1.00
20231;DHT22;10274;49.022;9.338;2022-11-14T12:50:09;12.20;99.90
20231;DHT22;10274;49.022;9.338;2022-11-14T12:52:53;12.30;1.00
20231;DHT22;10274;49.022;9.338;2022-11-14T12:55:54;12.30;99.90
20231;DHT22;10274;49.022;9.338;2022-11-14T12:58:33;12.30;99.90
20231;DHT22;10274;49.022;9.338;2022-11-14T13:01:22;12.40;99.90
20231;DHT22;10274;49.022;9.338;2022-11-14T13:03:58;12.40;99.90
20231;DHT22;10274;49.022;9.338;2022-11-14T13:06:38;12.80;99.90
20231;DHT22;10274;49.022;9.338;2022-11-14T13:09:33;15.10;99.90
20231;DHT22;10274;49.022;9.338;2022-11-14T13:12:28;15.50;10.30
20231;DHT22;10274;49.022;9.338;2022-11-14T13:15:25;14.30;99.90
20231;DHT22;10274;49.022;9.338;2022-11-14T13:18:14;14.70;99.90
20231;DHT22;10274;49.022;9.338;2022-11-14T13:21:03;14.40;99.90
20231;DHT22;10274;49.022;9.338;2022-11-14T13:23:55;14.60;99.90
20231;DHT22;10274;49.022;9.338;2022-11-14T13:26:37;14.70;99.90
20231;DHT22;10274;49.022;9.338;2022-11-14T13:29:03;15.90;1.00
20231;DHT22;10274;49.022;9.338;2022-11-14T13:31:48;16.20;1.00
20231;DHT22;10274;49.022;9.338;2022-11-14T13:34:31;16.80;55.70
20231;DHT22;10274;49.022;9.338;2022-11-14T13:37:08;17.10;1.00
20231;DHT22;10274;49.022;9.338;2022-11-14T13:39:40;15.60;81.10
20231;DHT22;10274;49.022;9.338;2022-11-14T13:45:38;14.50;1.00
20231;DHT22;10274;49.022;9.338;2022-11-14T13:48:35;14.30;1.00
20231;DHT22;10274;49.022;9.338;2022-11-14T13:51:10;14.90;1.00
20231;DHT22;10274;49.022;9.338;2022-11-14T13:53:39;15.10;1.00
20231;DHT22;10274;49.022;9.338;2022-11-14T13:56:14;15.00;1.00
20231;DHT22;10274;49.022;9.338;2022-11-14T14:02:06;14.60;1.00
20231;DHT22;10274;49.022;9.338;2022-11-14T14:04:46;14.00;1.00
20231;DHT22;10274;49.022;9.338;2022-11-14T14:07:23;13.80;1.00
20231;DHT22;10274;49.022;9.338;2022-11-14T14:10:00;13.80;58.50
20231;DHT22;10274;49.022;9.338;2022-11-14T14:12:44;14.20;17.40
20231;DHT22;10274;49.022;9.338;2022-11-14T14:15:20;14.00;99.90
20231;DHT22;10274;49.022;9.338;2022-11-14T14:17:55;14.20;1.00
20231;DHT22;10274;49.022;9.338;2022-11-14T14:20:32;14.10;1.30
20231;DHT22;10274;49.022;9.338;2022-11-14T14:23:09;14.00;70.00
20231;DHT22;10274;49.022;9.338;2022-11-14T14:25:47;13.70;99.90
20231;DHT22;10274;49.022;9.338;2022-11-14T14:28:23;13.70;99.90
20231;DHT22;10274;49.022;9.338;2022-11-14T14:31:08;13.60;99.90
20231;DHT22;10274;49.022;9.338;2022-11-14T14:33:39;13.60;99.90
20231;DHT22;10274;49.022;9.338;2022-11-14T14:36:16;13.50;99.90
20231;DHT22;10274;49.022;9.338;2022-11-14T14:38:43;13.70;99.90
20231;DHT22;10274;49.022;9.338;2022-11-14T14:41:11;13.60;1.00
20231;DHT22;10274;49.022;9.338;2022-11-14T14:43:41;14.00;99.90
20231;DHT22;10274;49.022;9.338;2022-11-14T14:46:09;14.50;1.00
20231;DHT22;10274;49.022;9.338;2022-11-14T14:48:39;14.40;1.00
20231;DHT22;10274;49.022;9.338;2022-11-14T14:51:11;14.20;1.00
20231;DHT22;10274;49.022;9.338;2022-11-14T14:53:50;14.10;1.00
20231;DHT22;10274;49.022;9.338;2022-11-14T14:56:18;14.00;1.00
20231;DHT22;10274;49.022;9.338;2022-11-14T14:58:45;13.90;40.80
20231;DHT22;10274;49.022;9.338;2022-11-14T15:01:15;13.80;99.90
20231;DHT22;10274;49.022;9.338;2022-11-14T15:03:45;13.70;99.90
20231;DHT22;10274;49.022;9.338;2022-11-14T15:06:21;13.70;99.90
20231;DHT22;10274;49.022;9.338;2022-11-14T15:08:54;13.70;99.90
20231;DHT22;10274;49.022;9.338;2022-11-14T15:11:22;13.70;99.90
20231;DHT22;10274;49.022;9.338;2022-11-14T15:13:51;13.80;99.90
20231;DHT22;10274;49.022;9.338;2022-11-14T15:16:20;13.70;99.90
20231;DHT22;10274;49.022;9.338;2022-11-14T15:18:48;13.60;99.90
20231;DHT22;10274;49.022;9.338;2022-11-14T15:21:23;13.50;1.00
20231;DHT22;10274;49.022;9.338;2022-11-14T15:23:58;13.50;1.00
20231;DHT22;10274;49.022;9.338;2022-11-14T15:26:25;13.50;1.00
20231;DHT22;10274;49.022;9.338;2022-11-14T15:29:04;13.30;99.90
20231;DHT22;10274;49.022;9.338;2022-11-14T15:31:33;13.40;1.00
20231;DHT22;10274;49.022;9.338;2022-11-14T15:34:03;13.50;1.00
20231;DHT22;10274;49.022;9.338;2022-11-14T15:36:30;13.60;99.90
20231;DHT22;10274;49.022;9.338;2022-11-14T15:38:58;13.50;1.00
20231;DHT22;10274;49.022;9.338;2022-11-14T15:41:26;13.50;1.00
20231;DHT22;10274;49.022;9.338;2022-11-14T15:43:55;13.40;1.00
20231;DHT22;10274;49.022;9.338;2022-11-14T15:46:33;13.40;1.00
20231;DHT22;10274;49.022;9.338;2022-11-14T15:49:07;13.40;1.00
20231;DHT22;10274;49.022;9.338;2022-11-14T15:51:39;13.40;1.00
20231;DHT22;10274;49.022;9.338;2022-11-14T15:54:22;13.30;1.00
20231;DHT22;10274;49.022;9.338;2022-11-14T15:56:49;13.40;1.00
20231;DHT22;10274;49.022;9.338;2022-11-14T15:59:15;13.30;1.00
20231;DHT22;10274;49.022;9.338;2022-11-14T16:01:46;13.30;1.00
20231;DHT22;10274;49.022;9.338;2022-11-14T16:04:16;13.20;1.00
20231;DHT22;10274;49.022;9.338;2022-11-14T16:06:43;13.20;1.00
20231;DHT22;10274;49.022;9.338;2022-11-14T16:09:15;13.20;1.00
20231;DHT22;10274;49.022;9.338;2022-11-14T16:11:42;13.30;1.00
20231;DHT22;10274;49.022;9.338;2022-11-14T16:14:09;13.30;1.00